Time;durP1;ratioP1;P1;durP2;ratioP2;P2;SDS_P1;SDS_P2;PMS_P1;PMS_P2;Temp;Humidity;BMP_temperature;BMP_pressure;BME280_temperature;BME280_humidity;BME280_pressure;Samples;Min_cycle;Max_cycle;Signal;HPM_P1;HPM_P2
2023/08/01 00:00:44;;;;;;;;;;;25.70;53.40;;;;;;5113173;28;20421;-53
2023/08/01 00:03:11;;;;;;;;;;;25.70;53.40;;;;;;5112936;28;19930;-52
2023/08/01 00:05:38;;;;;;;;;;;25.70;53.40;;;;;;5113012;28;19930;-51
2023/08/01 00:08:05;;;;;;;;;;;25.70;53.40;;;;;;5112928;28;19932;-52
2023/08/01 00:10:32;;;;;;;;;;;25.70;53.40;;;;;;5113256;28;20013;-51
2023/08/01 00:12:59;;;;;;;;;;;25.70;53.40;;;;;;5115879;28;19967;-52
2023/08/01 00:15:26;;;;;;;;;;;25.70;53.30;;;;;;5117195;28;20016;-54
2023/08/01 00:17:53;;;;;;;;;;;25.70;53.30;;;;;;5115321;28;19931;-52
2023/08/01 00:20:20;;;;;;;;;;;25.70;53.30;;;;;;5116449;28;20368;-54
2023/08/01 00:22:47;;;;;;;;;;;25.70;53.30;;;;;;5116576;28;19928;-54
2023/08/01 00:25:14;;;;;;;;;;;25.70;53.30;;;;;;5117146;28;20293;-53
2023/08/01 00:27:42;;;;;;;;;;;25.70;53.30;;;;;;5117247;28;19934;-54
2023/08/01 00:30:09;;;;;;;;;;;25.70;53.30;;;;;;5116457;28;19924;-49
2023/08/01 00:32:37;;;;;;;;;;;25.70;53.30;;;;;;5117187;28;19928;-55
2023/08/01 00:35:04;;;;;;;;;;;25.70;53.30;;;;;;5116681;28;19924;-52
2023/08/01 00:37:31;;;;;;;;;;;25.70;53.30;;;;;;5116942;28;19932;-53
2023/08/01 00:39:58;;;;;;;;;;;25.70;53.30;;;;;;5115848;28;20758;-48
2023/08/01 00:42:25;;;;;;;;;;;25.70;53.30;;;;;;5117521;28;19931;-49
2023/08/01 00:44:54;;;;;;;;;;;25.70;53.30;;;;;;5116691;28;19935;-49
2023/08/01 00:47:20;;;;;;;;;;;25.70;53.30;;;;;;5116610;27;20376;-51
2023/08/01 00:49:47;;;;;;;;;;;25.70;53.30;;;;;;5116254;28;19946;-52
2023/08/01 00:52:14;;;;;;;;;;;25.70;53.30;;;;;;5117316;28;20097;-49
2023/08/01 00:54:41;;;;;;;;;;;25.70;53.40;;;;;;5116498;28;20026;-52
2023/08/01 00:57:09;;;;;;;;;;;25.70;53.40;;;;;;5116396;28;19950;-53
2023/08/01 00:59:37;;;;;;;;;;;25.70;53.40;;;;;;5115833;28;20073;-49
2023/08/01 01:02:04;;;;;;;;;;;25.70;53.40;;;;;;5116140;28;19982;-52
2023/08/01 01:04:32;;;;;;;;;;;25.70;53.40;;;;;;5116085;28;19924;-52
2023/08/01 01:07:02;;;;;;;;;;;25.60;53.40;;;;;;5116055;28;19974;-52
2023/08/01 01:09:31;;;;;;;;;;;25.70;53.50;;;;;;5115675;28;19967;-50
2023/08/01 01:11:58;;;;;;;;;;;25.70;53.50;;;;;;5116354;28;19978;-50
2023/08/01 01:14:26;;;;;;;;;;;25.60;53.40;;;;;;5115519;28;19928;-51
2023/08/01 01:16:53;;;;;;;;;;;25.60;53.40;;;;;;5115776;28;19979;-53
2023/08/01 01:19:20;;;;;;;;;;;25.60;53.40;;;;;;5115592;28;19928;-54
2023/08/01 01:22:17;;;;;;;;;;;25.60;53.50;;;;;;5115856;28;20353;-53
2023/08/01 01:24:45;;;;;;;;;;;25.60;53.50;;;;;;5110550;28;20015;-54
2023/08/01 01:27:12;;;;;;;;;;;25.60;53.50;;;;;;5116046;28;19923;-52
2023/08/01 01:29:40;;;;;;;;;;;25.60;53.50;;;;;;5115499;28;20363;-54
2023/08/01 01:32:07;;;;;;;;;;;25.60;53.50;;;;;;5116113;28;19924;-53
2023/08/01 01:34:34;;;;;;;;;;;25.60;53.70;;;;;;5116202;28;19967;-51
2023/08/01 01:37:03;;;;;;;;;;;25.60;53.60;;;;;;5107194;28;19924;-53
2023/08/01 01:39:30;;;;;;;;;;;25.60;53.60;;;;;;5094853;28;20042;-53
2023/08/01 01:41:57;;;;;;;;;;;25.60;53.60;;;;;;5095047;28;19964;-51
2023/08/01 01:44:24;;;;;;;;;;;25.60;53.60;;;;;;5095402;28;20437;-52
2023/08/01 01:46:51;;;;;;;;;;;25.60;53.60;;;;;;5094949;28;20481;-55
2023/08/01 01:49:18;;;;;;;;;;;25.60;53.60;;;;;;5094663;28;19924;-47
2023/08/01 01:51:45;;;;;;;;;;;25.60;53.60;;;;;;5095306;28;19970;-51
2023/08/01 01:54:12;;;;;;;;;;;25.50;53.50;;;;;;5094825;28;19924;-51
2023/08/01 01:56:39;;;;;;;;;;;25.60;53.60;;;;;;5095427;28;19969;-52
2023/08/01 01:59:06;;;;;;;;;;;25.60;54.20;;;;;;5095355;28;19927;-49
2023/08/01 02:01:34;;;;;;;;;;;25.50;53.60;;;;;;5094721;28;19925;-51
2023/08/01 02:04:01;;;;;;;;;;;25.50;53.60;;;;;;5094917;28;20397;-53
2023/08/01 02:06:28;;;;;;;;;;;25.50;53.60;;;;;;5094588;28;19971;-53
2023/08/01 02:08:55;;;;;;;;;;;25.50;53.60;;;;;;5094850;28;20015;-54
2023/08/01 02:11:22;;;;;;;;;;;25.50;53.60;;;;;;5094977;28;20392;-53
2023/08/01 02:13:49;;;;;;;;;;;25.50;53.60;;;;;;5095288;28;19969;-53
2023/08/01 02:16:16;;;;;;;;;;;25.50;53.60;;;;;;5094924;28;19981;-49
2023/08/01 02:18:43;;;;;;;;;;;25.50;53.50;;;;;;5094354;28;19924;-54
2023/08/01 02:21:10;;;;;;;;;;;25.60;53.60;;;;;;5093669;28;20346;-55
2023/08/01 02:23:37;;;;;;;;;;;25.50;53.50;;;;;;5094927;28;19928;-51
2023/08/01 02:26:04;;;;;;;;;;;25.60;53.60;;;;;;5094654;28;19947;-53
2023/08/01 02:28:31;;;;;;;;;;;25.60;53.50;;;;;;5094373;28;20363;-54
2023/08/01 02:30:58;;;;;;;;;;;25.60;53.50;;;;;;5094718;28;19928;-52
2023/08/01 02:33:25;;;;;;;;;;;25.60;53.50;;;;;;5094416;28;19974;-55
2023/08/01 02:35:52;;;;;;;;;;;25.60;53.50;;;;;;5093891;28;19928;-51
2023/08/01 02:38:20;;;;;;;;;;;25.60;53.50;;;;;;5094439;28;19950;-56
2023/08/01 02:40:47;;;;;;;;;;;25.60;53.50;;;;;;5111742;28;19991;-53
2023/08/01 02:43:14;;;;;;;;;;;25.60;53.50;;;;;;5114351;28;19923;-53
2023/08/01 02:45:42;;;;;;;;;;;25.60;53.50;;;;;;5113722;28;19924;-53
2023/08/01 02:48:09;;;;;;;;;;;25.60;53.50;;;;;;5114483;28;19923;-48
2023/08/01 02:50:37;;;;;;;;;;;25.60;53.40;;;;;;5114697;28;19924;-53
2023/08/01 02:53:04;;;;;;;;;;;25.60;53.50;;;;;;5114419;28;19924;-54
2023/08/01 02:55:31;;;;;;;;;;;25.60;53.50;;;;;;5114579;28;19963;-49
2023/08/01 02:57:58;;;;;;;;;;;25.60;53.50;;;;;;5114301;28;20261;-53
2023/08/01 03:00:25;;;;;;;;;;;25.60;53.50;;;;;;5114222;28;20018;-54
2023/08/01 03:02:52;;;;;;;;;;;25.50;53.50;;;;;;5114761;28;20287;-52
2023/08/01 03:05:19;;;;;;;;;;;25.50;53.50;;;;;;5114303;28;19931;-54
2023/08/01 03:07:46;;;;;;;;;;;25.50;53.50;;;;;;5114229;28;19930;-54
2023/08/01 03:10:14;;;;;;;;;;;25.50;53.60;;;;;;5112861;28;19924;-51
2023/08/01 03:13:00;;;;;;;;;;;25.50;53.60;;;;;;5114224;28;20383;-49
2023/08/01 03:15:28;;;;;;;;;;;25.50;54.10;;;;;;5113678;28;19981;-50
2023/08/01 03:17:54;;;;;;;;;;;25.50;53.60;;;;;;5114041;28;19978;-53
2023/08/01 03:20:22;;;;;;;;;;;25.50;53.60;;;;;;5113585;28;19967;-49
2023/08/01 03:22:49;;;;;;;;;;;25.50;53.60;;;;;;5114082;28;20376;-52
2023/08/01 03:25:17;;;;;;;;;;;25.50;53.60;;;;;;5113395;28;20387;-50
2023/08/01 03:27:44;;;;;;;;;;;25.50;53.60;;;;;;5114136;28;19962;-49
2023/08/01 03:30:11;;;;;;;;;;;25.50;53.70;;;;;;5113409;28;20014;-53
2023/08/01 03:32:38;;;;;;;;;;;25.50;53.60;;;;;;5105159;28;19954;-52
2023/08/01 03:35:05;;;;;;;;;;;25.50;53.60;;;;;;5093372;28;19928;-52
2023/08/01 03:37:32;;;;;;;;;;;25.50;53.60;;;;;;5087290;28;19924;-53
2023/08/01 03:39:59;;;;;;;;;;;25.50;53.60;;;;;;5093449;28;19924;-54
2023/08/01 03:42:26;;;;;;;;;;;25.50;53.60;;;;;;5095729;28;20389;-53
2023/08/01 03:44:53;;;;;;;;;;;25.50;53.60;;;;;;5112890;28;19971;-53
2023/08/01 03:47:20;;;;;;;;;;;25.50;53.60;;;;;;5113303;28;20272;-52
2023/08/01 03:49:47;;;;;;;;;;;25.50;53.60;;;;;;5112852;28;19963;-53
2023/08/01 03:52:14;;;;;;;;;;;25.50;53.50;;;;;;5095076;28;19978;-53
2023/08/01 03:54:41;;;;;;;;;;;25.50;53.50;;;;;;5092123;28;20349;-52
2023/08/01 03:57:09;;;;;;;;;;;25.50;53.50;;;;;;5079495;28;20398;-53
2023/08/01 03:59:36;;;;;;;;;;;25.50;54.00;;;;;;5075401;28;19970;-52
2023/08/01 04:02:04;;;;;;;;;;;25.50;53.50;;;;;;5092609;28;19971;-53
2023/08/01 04:04:31;;;;;;;;;;;25.50;53.40;;;;;;5095242;28;20479;-50
2023/08/01 04:06:58;;;;;;;;;;;25.50;53.40;;;;;;5089325;28;19935;-50
2023/08/01 04:09:25;;;;;;;;;;;25.60;53.40;;;;;;5084303;28;19935;-48
2023/08/01 04:11:52;;;;;;;;;;;25.50;53.30;;;;;;5080337;28;19924;-52
2023/08/01 04:14:19;;;;;;;;;;;25.60;53.40;;;;;;5082217;28;20020;-53
2023/08/01 04:16:46;;;;;;;;;;;25.60;53.30;;;;;;5077721;28;19924;-48
2023/08/01 04:19:13;;;;;;;;;;;25.60;53.30;;;;;;5078948;28;19933;-51
2023/08/01 04:21:40;;;;;;;;;;;25.70;53.30;;;;;;5091519;28;20468;-53
2023/08/01 04:24:06;;;;;;;;;;;25.60;53.10;;;;;;5092579;28;20013;-53
2023/08/01 04:26:34;;;;;;;;;;;25.70;53.10;;;;;;5110185;28;20026;-52
2023/08/01 04:29:01;;;;;;;;;;;25.70;53.10;;;;;;5085113;28;19924;-54
2023/08/01 04:31:28;;;;;;;;;;;25.70;53.00;;;;;;5091052;28;19990;-54
2023/08/01 04:33:55;;;;;;;;;;;25.70;53.00;;;;;;5092777;28;20014;-50
2023/08/01 04:36:22;;;;;;;;;;;25.70;52.90;;;;;;5090843;28;19924;-52
2023/08/01 04:38:49;;;;;;;;;;;25.70;53.00;;;;;;5079576;28;19925;-53
2023/08/01 04:41:16;;;;;;;;;;;25.60;53.10;;;;;;5079469;28;19955;-50
2023/08/01 04:43:43;;;;;;;;;;;25.50;53.20;;;;;;5084345;28;19964;-52
2023/08/01 04:46:10;;;;;;;;;;;25.30;53.50;;;;;;5089444;28;20401;-54
2023/08/01 04:48:41;;;;;;;;;;;25.10;53.10;;;;;;5081576;28;19970;-54
2023/08/01 04:51:08;;;;;;;;;;;24.80;51.60;;;;;;5087828;28;19967;-53
2023/08/01 04:53:35;;;;;;;;;;;24.50;50.20;;;;;;5084470;28;19925;-51
2023/08/01 04:56:02;;;;;;;;;;;24.20;49.30;;;;;;5081678;28;20027;-53
2023/08/01 04:58:30;;;;;;;;;;;23.90;48.90;;;;;;5081550;28;20185;-50
2023/08/01 05:00:57;;;;;;;;;;;23.60;48.90;;;;;;5084529;28;19982;-51
2023/08/01 05:03:25;;;;;;;;;;;23.30;48.00;;;;;;5081912;28;20274;-51
2023/08/01 05:05:52;;;;;;;;;;;23.00;48.20;;;;;;5092548;28;20376;-52
2023/08/01 05:08:19;;;;;;;;;;;22.80;49.10;;;;;;5095366;28;19970;-47
2023/08/01 05:10:46;;;;;;;;;;;22.50;48.10;;;;;;5082238;28;20039;-53
2023/08/01 05:13:13;;;;;;;;;;;22.20;48.40;;;;;;5080180;28;20025;-53
2023/08/01 05:15:40;;;;;;;;;;;22.00;48.80;;;;;;5083469;28;19924;-52
2023/08/01 05:18:07;;;;;;;;;;;21.80;49.00;;;;;;5082860;28;19924;-52
2023/08/01 05:20:34;;;;;;;;;;;21.60;49.40;;;;;;5081594;28;20268;-54
2023/08/01 05:23:01;;;;;;;;;;;21.40;50.40;;;;;;5079281;28;20036;-51
2023/08/01 05:25:28;;;;;;;;;;;21.20;50.90;;;;;;5074495;28;20312;-54
2023/08/01 05:27:55;;;;;;;;;;;21.00;51.30;;;;;;5073155;28;19935;-56
2023/08/01 05:30:23;;;;;;;;;;;20.90;51.40;;;;;;5069605;28;19924;-55
2023/08/01 05:32:51;;;;;;;;;;;20.80;51.50;;;;;;5073954;28;19924;-58
2023/08/01 05:35:18;;;;;;;;;;;20.80;52.10;;;;;;5075446;28;19932;-59
2023/08/01 05:37:45;;;;;;;;;;;20.70;53.20;;;;;;5068464;28;19924;-59
2023/08/01 05:40:13;;;;;;;;;;;20.60;53.30;;;;;;5067509;28;19936;-59
2023/08/01 05:42:40;;;;;;;;;;;20.60;53.40;;;;;;5077358;28;20019;-59
2023/08/01 05:45:08;;;;;;;;;;;20.60;53.80;;;;;;5073247;28;20747;-60
2023/08/01 05:47:36;;;;;;;;;;;20.50;54.40;;;;;;5071350;28;19928;-60
2023/08/01 05:50:04;;;;;;;;;;;20.50;54.40;;;;;;5075203;28;20014;-59
2023/08/01 05:52:31;;;;;;;;;;;20.50;55.30;;;;;;5068334;28;19932;-60
2023/08/01 05:54:58;;;;;;;;;;;20.50;55.30;;;;;;5067876;28;20030;-60
2023/08/01 05:57:25;;;;;;;;;;;20.40;55.50;;;;;;5075083;28;19956;-60
2023/08/01 05:59:53;;;;;;;;;;;20.50;55.70;;;;;;5075387;28;20756;-58
2023/08/01 06:02:20;;;;;;;;;;;20.50;55.40;;;;;;5075785;28;19932;-58
2023/08/01 06:04:48;;;;;;;;;;;20.50;55.30;;;;;;5072617;28;19928;-58
2023/08/01 06:07:15;;;;;;;;;;;20.50;55.20;;;;;;5069646;28;19924;-57
2023/08/01 06:09:42;;;;;;;;;;;20.50;55.60;;;;;;5072052;28;19998;-56
2023/08/01 06:12:09;;;;;;;;;;;20.50;55.90;;;;;;5072284;28;19989;-59
2023/08/01 06:14:36;;;;;;;;;;;20.50;55.40;;;;;;5073648;28;19931;-57
2023/08/01 06:17:03;;;;;;;;;;;20.50;55.30;;;;;;5072904;28;20262;-60
2023/08/01 06:19:30;;;;;;;;;;;20.50;55.80;;;;;;5073630;28;19924;-58
2023/08/01 06:21:57;;;;;;;;;;;20.50;55.90;;;;;;5076884;28;19936;-58
2023/08/01 06:24:24;;;;;;;;;;;20.50;55.50;;;;;;5079986;28;20380;-60
2023/08/01 06:26:51;;;;;;;;;;;20.50;55.60;;;;;;5072277;28;20339;-58
2023/08/01 06:29:19;;;;;;;;;;;20.50;55.50;;;;;;5078615;28;20514;-58
2023/08/01 06:31:46;;;;;;;;;;;20.50;55.40;;;;;;5077511;28;20014;-57
2023/08/01 06:34:13;;;;;;;;;;;20.60;55.40;;;;;;5075848;28;19924;-59
2023/08/01 06:36:40;;;;;;;;;;;20.50;55.80;;;;;;5070935;28;19932;-57
2023/08/01 06:39:08;;;;;;;;;;;20.60;56.50;;;;;;5073191;28;19928;-57
2023/08/01 06:41:36;;;;;;;;;;;20.60;55.90;;;;;;5070972;28;19924;-59
2023/08/01 06:44:03;;;;;;;;;;;20.60;56.40;;;;;;5070738;28;20085;-60
2023/08/01 06:46:30;;;;;;;;;;;20.60;56.30;;;;;;5071479;28;19989;-59
2023/08/01 06:48:57;;;;;;;;;;;20.60;56.10;;;;;;5068983;28;19932;-59
2023/08/01 06:51:24;;;;;;;;;;;20.60;55.90;;;;;;5070927;28;19971;-59
2023/08/01 06:53:52;;;;;;;;;;;20.60;56.20;;;;;;5072528;28;20017;-59
2023/08/01 06:56:19;;;;;;;;;;;20.60;56.30;;;;;;5074437;28;19931;-59
2023/08/01 06:58:46;;;;;;;;;;;20.60;56.40;;;;;;5071115;28;19932;-60
2023/08/01 07:01:13;;;;;;;;;;;20.60;56.60;;;;;;5074426;28;20402;-61
2023/08/01 07:03:40;;;;;;;;;;;20.60;56.80;;;;;;5075755;28;19943;-60
2023/08/01 07:06:07;;;;;;;;;;;20.70;56.90;;;;;;5077341;28;19932;-58
2023/08/01 07:08:34;;;;;;;;;;;20.70;56.40;;;;;;5077578;28;19960;-58
2023/08/01 07:11:02;;;;;;;;;;;20.70;56.90;;;;;;5072484;28;20797;-60
2023/08/01 07:13:29;;;;;;;;;;;20.70;56.80;;;;;;5075438;28;20292;-60
2023/08/01 07:15:56;;;;;;;;;;;20.80;56.80;;;;;;5071519;28;19924;-59
2023/08/01 07:18:23;;;;;;;;;;;20.80;56.80;;;;;;5077242;28;19936;-59
2023/08/01 07:21:00;;;;;;;;;;;20.90;56.50;;;;;;5073108;28;20030;-60
2023/08/01 07:23:28;;;;;;;;;;;20.90;56.80;;;;;;5077558;28;19928;-60
2023/08/01 07:25:54;;;;;;;;;;;20.90;57.60;;;;;;5079764;28;20015;-59
2023/08/01 07:28:21;;;;;;;;;;;20.90;57.30;;;;;;5075386;28;20023;-60
2023/08/01 07:30:48;;;;;;;;;;;20.90;58.00;;;;;;5074735;28;19928;-60
2023/08/01 07:33:16;;;;;;;;;;;20.90;57.20;;;;;;5075239;28;20014;-60
2023/08/01 07:35:43;;;;;;;;;;;20.90;57.40;;;;;;5072705;28;20696;-60
2023/08/01 07:38:12;;;;;;;;;;;20.90;57.80;;;;;;5073759;28;19933;-60
2023/08/01 07:40:41;;;;;;;;;;;21.00;57.30;;;;;;5072122;28;20011;-60
2023/08/01 07:43:08;;;;;;;;;;;21.00;57.70;;;;;;5068745;28;19963;-61
2023/08/01 07:45:35;;;;;;;;;;;21.00;57.40;;;;;;5072362;28;20385;-60
2023/08/01 07:48:03;;;;;;;;;;;21.00;57.10;;;;;;5070757;28;19933;-60
2023/08/01 07:50:31;;;;;;;;;;;21.00;57.30;;;;;;5069595;28;19936;-58
2023/08/01 07:52:57;;;;;;;;;;;21.10;57.20;;;;;;5077042;28;19939;-59
2023/08/01 07:55:25;;;;;;;;;;;21.10;57.20;;;;;;5074189;28;20446;-59
2023/08/01 07:57:52;;;;;;;;;;;21.10;57.10;;;;;;5071930;28;19932;-60
2023/08/01 08:00:19;;;;;;;;;;;21.20;57.40;;;;;;5073499;28;19932;-61
2023/08/01 08:02:46;;;;;;;;;;;21.20;57.90;;;;;;5076310;28;19934;-59
2023/08/01 08:05:13;;;;;;;;;;;21.20;58.10;;;;;;5083529;28;20035;-60
2023/08/01 08:07:40;;;;;;;;;;;21.20;57.70;;;;;;5079932;28;19924;-61
2023/08/01 08:10:07;;;;;;;;;;;21.30;57.70;;;;;;5077150;28;20372;-60
2023/08/01 08:12:34;;;;;;;;;;;21.30;58.00;;;;;;5069312;28;19932;-59
2023/08/01 08:15:02;;;;;;;;;;;21.30;57.40;;;;;;5071119;28;19936;-58
2023/08/01 08:17:29;;;;;;;;;;;21.40;57.40;;;;;;5075025;28;20160;-59
2023/08/01 08:19:56;;;;;;;;;;;21.40;57.40;;;;;;5070255;28;19950;-57
2023/08/01 08:22:23;;;;;;;;;;;21.40;57.80;;;;;;5078841;28;19928;-58
2023/08/01 08:24:50;;;;;;;;;;;21.40;58.40;;;;;;5076875;28;20448;-58
2023/08/01 08:27:17;;;;;;;;;;;21.40;57.60;;;;;;5071964;28;19967;-58
2023/08/01 08:29:44;;;;;;;;;;;21.40;57.20;;;;;;5081034;28;20054;-57
2023/08/01 08:32:11;;;;;;;;;;;21.40;57.20;;;;;;5075074;28;20257;-57
2023/08/01 08:34:39;;;;;;;;;;;21.40;57.90;;;;;;5085969;28;19943;-57
2023/08/01 08:37:06;;;;;;;;;;;21.40;57.90;;;;;;5072798;28;19934;-58
2023/08/01 08:39:34;;;;;;;;;;;21.40;57.80;;;;;;5076786;28;19925;-59
2023/08/01 08:42:01;;;;;;;;;;;21.40;57.00;;;;;;5075365;28;19935;-58
2023/08/01 08:44:30;;;;;;;;;;;21.40;57.40;;;;;;5077531;28;19968;-59
2023/08/01 08:47:00;;;;;;;;;;;21.40;57.50;;;;;;5076997;28;20376;-59
2023/08/01 08:49:27;;;;;;;;;;;21.50;58.10;;;;;;5076230;28;20349;-58
2023/08/01 08:51:54;;;;;;;;;;;21.40;57.60;;;;;;5078764;28;19928;-58
2023/08/01 08:54:21;;;;;;;;;;;21.40;58.00;;;;;;5074082;28;19985;-57
2023/08/01 08:56:48;;;;;;;;;;;21.40;56.90;;;;;;5078592;28;19932;-59
2023/08/01 08:59:16;;;;;;;;;;;21.40;57.50;;;;;;5076650;28;20032;-59
2023/08/01 09:01:44;;;;;;;;;;;21.40;56.90;;;;;;5076638;28;20402;-57
2023/08/01 09:04:11;;;;;;;;;;;21.50;57.40;;;;;;5073803;28;20045;-58
2023/08/01 09:06:46;;;;;;;;;;;21.50;57.10;;;;;;5071825;28;19936;-57
2023/08/01 09:09:18;;;;;;;;;;;21.50;57.90;;;;;;5077618;28;19935;-57
2023/08/01 09:11:46;;;;;;;;;;;21.50;57.20;;;;;;5073640;28;19929;-57
2023/08/01 09:14:13;;;;;;;;;;;21.50;57.20;;;;;;5070480;28;20020;-59
2023/08/01 09:16:41;;;;;;;;;;;21.50;57.90;;;;;;5072087;28;20333;-60
2023/08/01 09:19:09;;;;;;;;;;;21.50;57.30;;;;;;5071310;28;19928;-60
2023/08/01 09:21:39;;;;;;;;;;;21.60;57.20;;;;;;5068467;28;19932;-60
2023/08/01 09:24:10;;;;;;;;;;;21.60;57.60;;;;;;5070399;28;19929;-60
2023/08/01 09:26:37;;;;;;;;;;;21.70;57.70;;;;;;5072026;28;20300;-59
2023/08/01 09:29:05;;;;;;;;;;;21.70;56.60;;;;;;5071343;28;20020;-60
2023/08/01 09:31:33;;;;;;;;;;;21.70;56.60;;;;;;5068040;28;19963;-59
2023/08/01 09:34:01;;;;;;;;;;;21.70;57.10;;;;;;5071291;28;19928;-59
2023/08/01 09:36:28;;;;;;;;;;;21.70;57.00;;;;;;5064302;28;19928;-59
2023/08/01 09:38:59;;;;;;;;;;;21.80;57.10;;;;;;5072177;28;20346;-59
2023/08/01 09:41:27;;;;;;;;;;;21.80;56.10;;;;;;5075179;28;19928;-60
2023/08/01 09:43:53;;;;;;;;;;;21.80;56.30;;;;;;5073529;28;20005;-60
2023/08/01 09:46:20;;;;;;;;;;;21.90;55.80;;;;;;5072096;28;20009;-59
2023/08/01 09:48:47;;;;;;;;;;;21.90;55.30;;;;;;5071163;28;20309;-59
2023/08/01 09:51:15;;;;;;;;;;;21.90;56.00;;;;;;5078421;28;20346;-60
2023/08/01 09:53:52;;;;;;;;;;;21.90;56.30;;;;;;5073977;28;20023;-60
2023/08/01 09:56:21;;;;;;;;;;;21.90;55.70;;;;;;5075681;28;19939;-60
2023/08/01 09:58:49;;;;;;;;;;;21.90;55.10;;;;;;5077807;28;19929;-60
2023/08/01 10:01:18;;;;;;;;;;;21.90;55.50;;;;;;5076037;28;19978;-60
2023/08/01 10:03:49;;;;;;;;;;;21.80;55.30;;;;;;5077048;28;19936;-60
2023/08/01 10:06:20;;;;;;;;;;;21.80;55.00;;;;;;5077217;28;19940;-60
2023/08/01 10:08:48;;;;;;;;;;;21.90;56.50;;;;;;5074255;28;20019;-60
2023/08/01 10:11:16;;;;;;;;;;;21.90;55.70;;;;;;5077680;28;19939;-60
2023/08/01 10:13:44;;;;;;;;;;;21.80;54.50;;;;;;5081118;28;19956;-60
2023/08/01 10:16:12;;;;;;;;;;;21.90;54.30;;;;;;5079191;28;19975;-60
2023/08/01 10:18:39;;;;;;;;;;;21.90;55.30;;;;;;5088398;28;19924;-60
2023/08/01 10:21:17;;;;;;;;;;;21.90;55.20;;;;;;5077412;28;19951;-59
2023/08/01 10:23:44;;;;;;;;;;;21.80;55.90;;;;;;5081739;28;19927;-60
2023/08/01 10:26:12;;;;;;;;;;;21.80;55.80;;;;;;5077889;28;19928;-59
2023/08/01 10:28:40;;;;;;;;;;;21.80;54.50;;;;;;5073396;28;19963;-59
2023/08/01 10:31:10;;;;;;;;;;;21.80;55.10;;;;;;5079176;28;20342;-60
2023/08/01 10:33:38;;;;;;;;;;;21.80;54.40;;;;;;5077717;28;19931;-60
2023/08/01 10:36:16;;;;;;;;;;;21.80;55.60;;;;;;5079617;28;19978;-60
2023/08/01 10:38:47;;;;;;;;;;;21.80;55.80;;;;;;5074757;28;19928;-60
2023/08/01 10:41:22;;;;;;;;;;;21.80;55.20;;;;;;5084723;28;20363;-60
2023/08/01 10:43:49;;;;;;;;;;;21.70;55.00;;;;;;5071854;28;20025;-60
2023/08/01 10:46:16;;;;;;;;;;;21.70;55.70;;;;;;5068692;28;19932;-60
2023/08/01 10:48:50;;;;;;;;;;;21.70;54.90;;;;;;5076160;28;20015;-60
2023/08/01 10:51:17;;;;;;;;;;;21.70;55.70;;;;;;5077694;28;19974;-60
2023/08/01 10:53:44;;;;;;;;;;;21.70;55.20;;;;;;5073713;28;19977;-60
2023/08/01 10:56:19;;;;;;;;;;;21.70;55.30;;;;;;5072073;28;20369;-60
2023/08/01 10:58:46;;;;;;;;;;;21.70;55.40;;;;;;5076370;28;19942;-60
2023/08/01 11:01:13;;;;;;;;;;;21.70;54.70;;;;;;5075160;28;20391;-60
2023/08/01 11:03:41;;;;;;;;;;;21.80;55.80;;;;;;5070069;28;19936;-63
2023/08/01 11:06:08;;;;;;;;;;;21.80;56.40;;;;;;5074139;28;19925;-55
2023/08/01 11:08:36;;;;;;;;;;;21.80;55.00;;;;;;5077302;28;19993;-59
2023/08/01 11:11:05;;;;;;;;;;;21.80;55.90;;;;;;5075170;28;19924;-59
2023/08/01 11:13:34;;;;;;;;;;;21.80;55.20;;;;;;5077012;28;20361;-61
2023/08/01 11:16:03;;;;;;;;;;;21.90;55.00;;;;;;5076197;28;19924;-60
2023/08/01 11:18:30;;;;;;;;;;;21.90;56.10;;;;;;5073701;28;20296;-60
2023/08/01 11:20:57;;;;;;;;;;;21.90;54.80;;;;;;5071947;28;19972;-60
2023/08/01 11:23:28;;;;;;;;;;;22.00;56.00;;;;;;5076486;28;20349;-60
2023/08/01 11:25:55;;;;;;;;;;;22.00;53.90;;;;;;5069941;28;20055;-60
2023/08/01 11:28:24;;;;;;;;;;;22.00;54.60;;;;;;5068644;28;19935;-59
2023/08/01 11:30:51;;;;;;;;;;;22.00;54.60;;;;;;5074610;28;20048;-60
2023/08/01 11:33:24;;;;;;;;;;;22.10;56.40;;;;;;5069083;28;19954;-59
2023/08/01 11:35:59;;;;;;;;;;;22.00;56.40;;;;;;5075572;28;19934;-60
2023/08/01 11:38:29;;;;;;;;;;;22.00;56.70;;;;;;5077122;28;19976;-60
2023/08/01 11:40:57;;;;;;;;;;;22.00;56.60;;;;;;5075262;28;19996;-60
2023/08/01 11:43:24;;;;;;;;;;;22.00;56.90;;;;;;5071902;28;19932;-60
2023/08/01 11:45:55;;;;;;;;;;;22.00;56.70;;;;;;5070988;28;19993;-60
2023/08/01 11:48:23;;;;;;;;;;;22.10;55.40;;;;;;5071218;28;19947;-60
2023/08/01 11:50:56;;;;;;;;;;;22.10;55.00;;;;;;5069715;28;19936;-60
2023/08/01 11:53:23;;;;;;;;;;;22.20;56.70;;;;;;5072600;28;19962;-60
2023/08/01 11:55:56;;;;;;;;;;;22.20;55.40;;;;;;5070094;28;19939;-60
2023/08/01 11:58:30;;;;;;;;;;;22.30;56.10;;;;;;5071467;28;19932;-60
2023/08/01 12:01:04;;;;;;;;;;;22.30;55.90;;;;;;5071855;28;19932;-60
2023/08/01 12:03:33;;;;;;;;;;;22.30;56.30;;;;;;5073156;28;20009;-59
2023/08/01 12:06:11;;;;;;;;;;;22.30;55.50;;;;;;5077439;28;19924;-59
2023/08/01 12:08:38;;;;;;;;;;;22.30;56.10;;;;;;5079405;28;20877;-60
2023/08/01 12:11:05;;;;;;;;;;;22.40;55.40;;;;;;5077699;28;19932;-60
2023/08/01 12:13:32;;;;;;;;;;;22.40;56.40;;;;;;5077364;28;20090;-59
2023/08/01 12:16:00;;;;;;;;;;;22.40;56.40;;;;;;5077167;28;19932;-59
2023/08/01 12:18:28;;;;;;;;;;;22.30;55.90;;;;;;5076429;28;19936;-60
2023/08/01 12:21:15;;;;;;;;;;;22.30;56.90;;;;;;5076499;28;19938;-59
2023/08/01 12:23:42;;;;;;;;;;;22.30;57.20;;;;;;5078614;28;19994;-59
2023/08/01 12:26:09;;;;;;;;;;;22.30;56.90;;;;;;5083103;28;19928;-59
2023/08/01 12:28:36;;;;;;;;;;;22.30;56.90;;;;;;5071560;28;19935;-59
2023/08/01 12:31:04;;;;;;;;;;;22.30;57.60;;;;;;5077447;28;20018;-59
2023/08/01 12:33:32;;;;;;;;;;;22.30;56.40;;;;;;5078365;28;19933;-59
2023/08/01 12:35:59;;;;;;;;;;;22.40;55.80;;;;;;5079381;28;19985;-60
2023/08/01 12:38:26;;;;;;;;;;;22.40;56.30;;;;;;5076133;28;20424;-57
2023/08/01 12:40:53;;;;;;;;;;;22.40;56.90;;;;;;5076606;28;19929;-58
2023/08/01 12:43:22;;;;;;;;;;;22.50;55.50;;;;;;5080002;28;20359;-59
2023/08/01 12:45:49;;;;;;;;;;;22.50;56.70;;;;;;5077045;28;19932;-60
2023/08/01 12:48:20;;;;;;;;;;;22.50;55.50;;;;;;5075093;28;21024;-61
2023/08/01 12:50:48;;;;;;;;;;;22.60;56.60;;;;;;5082675;28;19924;-59
2023/08/01 12:53:15;;;;;;;;;;;22.60;56.70;;;;;;5076937;28;19931;-58
2023/08/01 12:55:44;;;;;;;;;;;22.60;56.70;;;;;;5072035;28;19935;-58
2023/08/01 12:58:11;;;;;;;;;;;22.50;56.90;;;;;;5074978;28;19932;-59
2023/08/01 13:00:39;;;;;;;;;;;22.50;56.80;;;;;;5073952;28;19932;-58
2023/08/01 13:03:07;;;;;;;;;;;22.50;55.90;;;;;;5078879;28;21778;-58
2023/08/01 13:05:35;;;;;;;;;;;22.50;56.50;;;;;;5070748;28;20499;-60
2023/08/01 13:08:02;;;;;;;;;;;22.50;56.60;;;;;;5072757;28;19924;-58
2023/08/01 13:10:30;;;;;;;;;;;22.50;57.10;;;;;;5071029;28;19928;-59
2023/08/01 13:12:57;;;;;;;;;;;22.50;56.30;;;;;;5074707;28;19963;-59
2023/08/01 13:15:24;;;;;;;;;;;22.50;57.20;;;;;;5070900;28;19932;-59
2023/08/01 13:17:52;;;;;;;;;;;22.60;56.20;;;;;;5071932;28;20368;-60
2023/08/01 13:20:20;;;;;;;;;;;22.60;57.30;;;;;;5071225;28;20400;-56
2023/08/01 13:22:48;;;;;;;;;;;22.60;56.60;;;;;;5079073;28;19928;-59
2023/08/01 13:25:15;;;;;;;;;;;22.60;56.50;;;;;;5077311;28;20380;-59
2023/08/01 13:27:43;;;;;;;;;;;22.60;56.60;;;;;;5080678;28;19924;-59
2023/08/01 13:30:13;;;;;;;;;;;22.60;56.30;;;;;;5077805;28;20007;-59
2023/08/01 13:32:41;;;;;;;;;;;22.70;56.10;;;;;;5087009;28;19924;-58
2023/08/01 13:35:08;;;;;;;;;;;22.70;56.60;;;;;;5077723;28;19929;-60
2023/08/01 13:37:35;;;;;;;;;;;22.60;56.00;;;;;;5076497;28;19928;-59
2023/08/01 13:40:03;;;;;;;;;;;22.60;56.10;;;;;;5071916;28;20033;-60
2023/08/01 13:42:30;;;;;;;;;;;22.60;55.90;;;;;;5075147;28;19952;-59
2023/08/01 13:44:57;;;;;;;;;;;22.60;56.60;;;;;;5079245;28;20023;-60
2023/08/01 13:47:24;;;;;;;;;;;22.50;56.90;;;;;;5070674;28;19960;-59
2023/08/01 13:49:51;;;;;;;;;;;22.50;56.80;;;;;;5068025;28;19973;-60
2023/08/01 13:52:19;;;;;;;;;;;22.50;55.70;;;;;;5067006;28;20390;-58
2023/08/01 13:54:46;;;;;;;;;;;22.50;56.20;;;;;;5066525;28;19939;-58
2023/08/01 13:57:13;;;;;;;;;;;22.50;56.10;;;;;;5068950;28;19932;-58
2023/08/01 13:59:40;;;;;;;;;;;22.40;56.70;;;;;;5075250;28;20005;-59
2023/08/01 14:02:07;;;;;;;;;;;22.40;57.40;;;;;;5073371;28;20008;-55
2023/08/01 14:04:36;;;;;;;;;;;22.40;58.80;;;;;;5076244;28;19928;-59
2023/08/01 14:07:03;;;;;;;;;;;22.60;67.50;;;;;;5075973;28;20424;-60
2023/08/01 14:09:32;;;;;;;;;;;22.80;70.40;;;;;;5079230;28;19931;-60
2023/08/01 14:11:59;;;;;;;;;;;23.10;71.60;;;;;;5076450;28;20013;-60
2023/08/01 14:14:26;;;;;;;;;;;23.50;72.60;;;;;;5066115;28;19987;-61
2023/08/01 14:16:54;;;;;;;;;;;23.80;72.30;;;;;;5071343;28;20137;-61
2023/08/01 14:19:22;;;;;;;;;;;24.10;73.00;;;;;;5073177;28;20015;-60